Time;durP1;ratioP1;P1;durP2;ratioP2;P2;SDS_P1;SDS_P2;PMS_P1;PMS_P2;Temp;Humidity;BMP_temperature;BMP_pressure;BME280_temperature;BME280_humidity;BME280_pressure;Samples;Min_cycle;Max_cycle;Signal;HPM_P1;HPM_P2
2023/04/21 00:02:16;;;;;;;25.97;13.30;;;6.00;92.30;;;;;;5034226;28;20655;-75
2023/04/21 00:04:44;;;;;;;26.60;13.80;;;6.00;92.30;;;;;;5052119;28;20434;-74
2023/04/21 00:07:10;;;;;;;22.80;13.00;;;6.00;92.20;;;;;;5049282;28;20477;-76
2023/04/21 00:09:35;;;;;;;27.80;13.33;;;6.00;92.20;;;;;;5051549;28;20422;-76
2023/04/21 00:12:01;;;;;;;22.63;11.60;;;6.00;92.10;;;;;;5050696;28;20982;-76
2023/04/21 00:14:27;;;;;;;21.80;12.37;;;6.00;92.10;;;;;;5052209;28;20180;-77
2023/04/21 00:16:52;;;;;;;24.90;13.23;;;6.00;92.00;;;;;;5048569;28;20243;-76
2023/04/21 00:19:18;;;;;;;22.17;12.37;;;6.00;92.00;;;;;;5053330;28;20238;-78
2023/04/21 00:21:45;;;;;;;25.33;11.37;;;6.00;92.00;;;;;;5052456;28;20243;-76
2023/04/21 00:24:10;;;;;;;23.30;12.10;;;6.00;92.00;;;;;;5053846;28;20434;-77
2023/04/21 00:26:36;;;;;;;25.87;14.13;;;6.00;92.00;;;;;;5062915;28;20538;-75
2023/04/21 00:29:02;;;;;;;25.00;12.33;;;6.00;91.90;;;;;;5069371;28;20219;-75
2023/04/21 00:31:28;;;;;;;24.20;12.30;;;5.90;92.10;;;;;;5068880;28;20184;-75
2023/04/21 00:33:54;;;;;;;25.67;13.30;;;6.00;92.10;;;;;;5067513;28;20419;-77
2023/04/21 00:36:20;;;;;;;25.70;14.50;;;6.00;92.10;;;;;;5062548;28;20675;-76
2023/04/21 00:38:45;;;;;;;30.67;14.37;;;5.90;92.20;;;;;;5066429;28;20438;-76
2023/04/21 00:41:11;;;;;;;30.33;15.57;;;5.90;92.20;;;;;;5064667;28;20192;-77
2023/04/21 00:43:57;;;;;;;28.03;15.13;;;5.90;92.20;;;;;;5056324;28;20725;-78
2023/04/21 00:46:22;;;;;;;25.80;13.90;;;6.00;92.00;;;;;;5037717;28;20204;-77
2023/04/21 00:48:48;;;;;;;25.33;14.20;;;6.00;91.90;;;;;;5059354;28;20469;-78
2023/04/21 00:51:13;;;;;;;26.43;15.57;;;6.00;91.90;;;;;;5054427;28;20195;-78
2023/04/21 00:53:39;;;;;;;35.40;17.50;;;6.00;91.80;;;;;;5055539;28;20187;-78
2023/04/21 00:56:05;;;;;;;36.87;17.30;;;5.90;91.80;;;;;;5048593;28;20180;-77
2023/04/21 00:58:32;;;;;;;34.17;18.10;;;5.80;91.80;;;;;;5052627;28;20512;-77
2023/04/21 01:00:58;;;;;;;27.33;15.47;;;5.80;91.90;;;;;;5053161;28;20184;-79
2023/04/21 01:03:23;;;;;;;33.47;16.40;;;5.90;92.00;;;;;;5050460;28;20426;-78
2023/04/21 01:05:49;;;;;;;32.03;16.37;;;5.90;92.00;;;;;;5052471;28;20276;-78
2023/04/21 01:08:15;;;;;;;31.57;16.10;;;5.80;91.90;;;;;;5053440;28;20212;-77
2023/04/21 01:10:41;;;;;;;34.17;17.47;;;5.80;92.00;;;;;;5048198;28;21608;-77
2023/04/21 01:13:06;;;;;;;32.30;16.63;;;5.90;92.00;;;;;;5054888;28;20446;-77
2023/04/21 01:15:32;;;;;;;27.73;12.90;;;5.90;92.10;;;;;;5051780;28;20235;-77
2023/04/21 01:17:58;;;;;;;37.33;16.90;;;5.90;92.00;;;;;;5052013;28;20235;-77
2023/04/21 01:20:23;;;;;;;30.60;16.00;;;5.90;92.00;;;;;;5055387;28;20553;-77
2023/04/21 01:22:50;;;;;;;33.60;15.10;;;5.90;91.90;;;;;;5054148;28;20612;-78
2023/04/21 01:25:17;;;;;;;34.27;15.77;;;5.80;91.90;;;;;;5049508;28;20223;-78
2023/04/21 01:27:43;;;;;;;30.33;13.67;;;5.80;92.00;;;;;;5048662;28;20528;-76
2023/04/21 01:30:08;;;;;;;32.30;15.80;;;5.80;92.00;;;;;;5049534;28;20420;-78
2023/04/21 01:32:34;;;;;;;34.97;17.30;;;5.80;92.00;;;;;;5051604;28;20220;-78
2023/04/21 01:35:00;;;;;;;34.93;18.30;;;5.70;92.00;;;;;;5051517;28;20419;-78
2023/04/21 01:37:31;;;;;;;29.40;15.30;;;5.60;92.00;;;;;;5049452;28;20276;-77
2023/04/21 01:39:59;;;;;;;37.80;16.80;;;5.50;92.20;;;;;;5034194;28;20288;-78
2023/04/21 01:42:27;;;;;;;41.97;17.93;;;5.60;92.30;;;;;;5051063;28;20422;-78
2023/04/21 01:44:53;;;;;;;27.77;14.70;;;5.50;92.30;;;;;;5029673;28;20423;-78
2023/04/21 01:47:19;;;;;;;27.73;14.80;;;5.50;92.30;;;;;;5045920;28;21146;-78
2023/04/21 01:49:45;;;;;;;35.33;16.47;;;5.50;92.50;;;;;;5034407;28;20484;-76
2023/04/21 01:52:11;;;;;;;36.83;16.73;;;5.50;92.50;;;;;;5047182;28;20419;-76
2023/04/21 01:54:36;;;;;;;34.50;16.77;;;5.40;92.60;;;;;;5051066;28;20200;-75
2023/04/21 01:57:03;;;;;;;41.33;18.13;;;5.40;92.60;;;;;;5045199;28;20265;-77
2023/04/21 01:59:28;;;;;;;30.03;15.63;;;5.40;92.70;;;;;;5052992;28;20191;-78
2023/04/21 02:01:54;;;;;;;30.77;15.63;;;5.40;92.80;;;;;;5034764;28;20427;-77
2023/04/21 02:04:19;;;;;;;30.43;15.00;;;5.40;92.80;;;;;;5052544;28;20184;-76
2023/04/21 02:06:45;;;;;;;27.60;15.23;;;5.40;92.90;;;;;;5049269;28;20204;-78
2023/04/21 02:09:11;;;;;;;27.53;14.10;;;5.40;92.90;;;;;;5066935;28;20204;-77
2023/04/21 02:11:37;;;;;;;30.43;14.13;;;5.40;92.90;;;;;;5062229;28;20199;-78
2023/04/21 02:14:02;;;;;;;26.97;14.53;;;5.40;92.80;;;;;;5067525;28;20176;-78
2023/04/21 02:16:28;;;;;;;27.37;13.83;;;5.30;92.80;;;;;;5060897;28;20478;-77
2023/04/21 02:19:05;;;;;;;28.17;14.27;;;5.30;92.80;;;;;;5054753;28;20185;-79
2023/04/21 02:21:31;;;;;;;42.47;18.20;;;5.30;92.80;;;;;;5055449;28;20426;-78
2023/04/21 02:23:57;;;;;;;27.53;13.33;;;5.20;92.60;;;;;;5050271;28;20434;-77
2023/04/21 02:26:23;;;;;;;33.53;14.17;;;5.20;92.70;;;;;;5057880;28;20451;-78
2023/04/21 02:28:50;;;;;;;27.70;14.00;;;5.20;92.80;;;;;;5053434;28;21239;-77
2023/04/21 02:31:16;;;;;;;28.50;13.33;;;5.10;92.90;;;;;;5050792;28;20332;-77
2023/04/21 02:33:42;;;;;;;30.73;16.00;;;5.10;93.10;;;;;;5050704;28;20423;-78
2023/04/21 02:36:07;;;;;;;30.80;14.73;;;5.10;93.20;;;;;;5051083;28;20419;-77
2023/04/21 02:38:33;;;;;;;35.27;16.80;;;5.10;93.20;;;;;;5025747;28;20683;-77
2023/04/21 02:40:59;;;;;;;32.73;14.80;;;5.00;93.30;;;;;;5050752;28;20184;-78
2023/04/21 02:43:24;;;;;;;32.80;14.90;;;5.10;93.40;;;;;;5049159;28;20433;-79
2023/04/21 02:45:50;;;;;;;31.40;14.47;;;5.10;93.40;;;;;;5052118;28;20181;-78
2023/04/21 02:48:21;;;;;;;31.03;14.30;;;5.00;93.30;;;;;;5042543;28;20300;-78
2023/04/21 02:50:51;;;;;;;28.97;14.13;;;5.00;93.30;;;;;;5046054;28;20242;-76
2023/04/21 02:53:17;;;;;;;34.27;16.37;;;5.00;93.40;;;;;;5030691;28;20423;-79
2023/04/21 02:55:43;;;;;;;30.30;15.10;;;4.90;93.40;;;;;;5053158;28;20419;-77
2023/04/21 02:58:09;;;;;;;34.47;16.10;;;5.00;93.50;;;;;;5052954;28;20527;-77
2023/04/21 03:00:35;;;;;;;34.57;16.13;;;5.00;93.40;;;;;;5056055;28;20184;-77
2023/04/21 03:03:00;;;;;;;32.93;16.30;;;4.90;93.30;;;;;;5039225;28;20422;-79
2023/04/21 03:05:26;;;;;;;33.50;15.60;;;4.90;93.30;;;;;;5054161;28;20195;-79
2023/04/21 03:07:52;;;;;;;35.77;18.77;;;4.90;93.30;;;;;;5054014;28;20211;-77
2023/04/21 03:10:18;;;;;;;33.50;16.30;;;4.80;93.30;;;;;;5055146;28;20339;-78
2023/04/21 03:12:44;;;;;;;39.30;16.80;;;4.80;93.30;;;;;;5054987;28;20169;-75
2023/04/21 03:15:10;;;;;;;37.77;16.97;;;4.80;93.40;;;;;;5055987;28;20426;-76
2023/04/21 03:17:36;;;;;;;36.37;17.57;;;4.80;93.50;;;;;;5056756;28;20589;-75
2023/04/21 03:20:04;;;;;;;34.33;16.67;;;4.80;93.70;;;;;;5044049;28;20184;-78
2023/04/21 03:22:30;;;;;;;38.40;18.03;;;4.90;93.80;;;;;;5069510;28;20184;-78
2023/04/21 03:24:56;;;;;;;42.03;20.23;;;5.00;93.80;;;;;;5069367;28;20430;-76
2023/04/21 03:27:21;;;;;;;36.70;16.60;;;5.00;93.70;;;;;;5064295;28;20242;-77
2023/04/21 03:29:47;;;;;;;39.33;17.23;;;4.90;93.60;;;;;;5062236;28;20196;-77
2023/04/21 03:32:12;;;;;;;40.13;19.33;;;4.80;93.60;;;;;;5038754;28;20267;-76
2023/04/21 03:34:38;;;;;;;33.97;16.10;;;4.80;93.60;;;;;;5055186;28;20184;-77
2023/04/21 03:37:04;;;;;;;41.50;16.93;;;4.80;93.60;;;;;;5054433;28;20346;-76
2023/04/21 03:39:29;;;;;;;42.80;20.83;;;4.80;93.70;;;;;;5053502;28;20192;-76
2023/04/21 03:41:55;;;;;;;47.37;20.33;;;4.80;93.70;;;;;;5037221;28;20184;-75
2023/04/21 03:44:20;;;;;;;45.30;20.30;;;4.80;93.70;;;;;;5056127;28;20284;-77
2023/04/21 03:46:46;;;;;;;41.47;19.37;;;4.80;93.80;;;;;;5038800;28;20210;-77
2023/04/21 03:49:12;;;;;;;44.80;20.20;;;4.90;93.80;;;;;;5049928;28;20227;-77
2023/04/21 03:51:37;;;;;;;41.90;18.47;;;4.90;93.80;;;;;;5053457;28;20269;-78
2023/04/21 03:54:03;;;;;;;37.60;16.43;;;4.90;93.70;;;;;;5056455;28;20188;-78
2023/04/21 03:56:28;;;;;;;40.80;17.80;;;5.00;93.70;;;;;;5055385;28;20212;-79
2023/04/21 03:58:54;;;;;;;42.67;20.37;;;5.00;93.70;;;;;;5055622;28;20180;-80
2023/04/21 04:01:20;;;;;;;42.33;18.63;;;4.90;93.50;;;;;;5055851;28;20196;-78
2023/04/21 04:03:46;;;;;;;49.83;22.27;;;4.90;93.50;;;;;;5061567;28;20176;-77
2023/04/21 04:06:11;;;;;;;47.70;18.77;;;4.90;93.40;;;;;;5065862;28;20438;-78
2023/04/21 04:08:37;;;;;;;38.70;16.53;;;4.90;93.50;;;;;;5047863;28;20219;-79
2023/04/21 04:11:03;;;;;;;43.73;19.57;;;5.00;93.50;;;;;;5065906;28;20599;-78
2023/04/21 04:13:28;;;;;;;37.67;18.10;;;5.00;93.50;;;;;;5069361;28;20244;-77
2023/04/21 04:15:54;;;;;;;39.77;17.97;;;5.00;93.50;;;;;;5067303;28;20267;-78
2023/04/21 04:18:20;;;;;;;46.27;19.77;;;5.10;93.50;;;;;;5066739;28;20295;-78
2023/04/21 04:20:45;;;;;;;44.50;19.00;;;5.10;93.40;;;;;;5068607;28;20188;-77
2023/04/21 04:23:11;;;;;;;46.03;21.23;;;5.20;93.40;;;;;;5066077;28;20450;-77
2023/04/21 04:25:38;;;;;;;42.43;19.50;;;5.20;93.30;;;;;;5061239;28;20192;-77
2023/04/21 04:28:04;;;;;;;40.30;18.47;;;5.10;93.20;;;;;;5057869;28;20246;-78
2023/04/21 04:30:31;;;;;;;40.53;21.10;;;5.10;93.10;;;;;;5060651;28;20486;-78
2023/04/21 04:32:57;;;;;;;41.20;19.93;;;5.10;92.90;;;;;;5058471;28;20411;-77
2023/04/21 04:35:23;;;;;;;43.37;19.00;;;5.10;92.70;;;;;;5052711;28;20422;-79
2023/04/21 04:37:49;;;;;;;41.60;20.40;;;5.10;92.50;;;;;;5060029;28;20208;-78
2023/04/21 04:40:15;;;;;;;33.50;16.87;;;5.10;92.40;;;;;;5059635;28;20192;-77
2023/04/21 04:42:41;;;;;;;39.67;18.03;;;5.20;92.40;;;;;;5059515;28;20438;-77
2023/04/21 04:45:08;;;;;;;37.43;19.17;;;5.20;92.30;;;;;;5040343;28;20246;-77
2023/04/21 04:47:34;;;;;;;37.67;20.17;;;5.10;92.20;;;;;;5060042;28;20466;-79
2023/04/21 04:49:59;;;;;;;36.73;20.03;;;5.10;92.10;;;;;;5058797;28;20959;-79
2023/04/21 04:52:25;;;;;;;43.30;20.60;;;5.10;92.10;;;;;;5058960;28;20419;-77
2023/04/21 04:54:51;;;;;;;40.73;20.10;;;5.10;92.20;;;;;;5056898;28;20177;-78
2023/04/21 04:57:16;;;;;;;34.43;17.33;;;5.20;92.20;;;;;;5030862;28;20458;-78
2023/04/21 04:59:42;;;;;;;39.93;19.27;;;5.20;92.30;;;;;;5054684;28;20264;-76
2023/04/21 05:02:09;;;;;;;44.00;21.83;;;5.30;92.30;;;;;;5055004;28;20177;-78
2023/04/21 05:04:34;;;;;;;36.43;19.40;;;5.30;92.20;;;;;;5057110;28;20325;-78
2023/04/21 05:07:00;;;;;;;38.50;18.87;;;5.30;92.20;;;;;;5056903;28;20542;-80
2023/04/21 05:09:25;;;;;;;41.03;19.20;;;5.40;92.30;;;;;;5038787;28;20589;-78
2023/04/21 05:11:51;;;;;;;37.60;19.47;;;5.50;92.10;;;;;;5062079;28;20256;-77
2023/04/21 05:14:17;;;;;;;43.40;20.60;;;5.50;92.00;;;;;;5054206;28;20183;-76
2023/04/21 05:16:43;;;;;;;40.87;18.70;;;5.60;91.90;;;;;;5036186;28;20200;-78
2023/04/21 05:19:08;;;;;;;45.67;20.33;;;5.60;91.80;;;;;;5053418;28;20223;-78
2023/04/21 05:21:34;;;;;;;48.80;20.73;;;5.60;91.40;;;;;;5053882;28;20426;-79
2023/04/21 05:24:00;;;;;;;39.27;19.07;;;5.70;91.30;;;;;;5053170;28;20685;-78
2023/04/21 05:26:27;;;;;;;39.23;20.10;;;5.80;91.10;;;;;;5051518;28;20205;-78
2023/04/21 05:28:53;;;;;;;48.20;20.60;;;5.90;90.90;;;;;;5055170;28;20200;-78
2023/04/21 05:31:19;;;;;;;45.37;21.47;;;5.90;90.80;;;;;;5058307;28;21325;-77
2023/04/21 05:33:44;;;;;;;38.90;19.50;;;5.90;90.80;;;;;;5055895;28;20528;-78
2023/04/21 05:36:10;;;;;;;41.87;20.30;;;5.90;90.90;;;;;;5035573;28;20181;-78
2023/04/21 05:38:37;;;;;;;37.07;18.90;;;6.00;91.10;;;;;;5053647;28;20184;-77
2023/04/21 05:41:03;;;;;;;33.97;17.73;;;6.10;90.90;;;;;;5053618;28;20909;-77
2023/04/21 05:43:32;;;;;;;35.53;17.37;;;6.10;90.60;;;;;;5053319;28;20445;-78
2023/04/21 05:45:58;;;;;;;38.80;17.57;;;6.10;90.40;;;;;;5053297;28;20427;-80
2023/04/21 05:48:24;;;;;;;44.47;19.03;;;6.10;90.40;;;;;;5052548;28;20847;-80
2023/04/21 05:50:49;;;;;;;43.80;20.50;;;6.10;90.30;;;;;;5053028;28;20419;-76
2023/04/21 05:53:15;;;;;;;39.67;18.63;;;6.00;90.20;;;;;;5053121;28;20180;-78
2023/04/21 05:55:41;;;;;;;41.53;18.97;;;6.10;90.20;;;;;;5053011;28;20247;-78
2023/04/21 05:58:06;;;;;;;36.73;18.07;;;6.20;90.10;;;;;;5051684;28;21054;-77
2023/04/21 06:00:32;;;;;;;35.60;17.50;;;6.30;89.50;;;;;;5052724;28;20627;-77
2023/04/21 06:02:58;;;;;;;39.30;18.37;;;6.30;89.00;;;;;;5052789;28;20643;-78
2023/04/21 06:05:23;;;;;;;38.90;19.03;;;6.30;89.20;;;;;;5052507;28;20182;-79
2023/04/21 06:07:49;;;;;;;41.33;18.60;;;6.40;89.30;;;;;;5035108;28;20208;-78
2023/04/21 06:10:15;;;;;;;38.20;18.37;;;6.50;89.50;;;;;;5054079;28;20238;-77
2023/04/21 06:12:41;;;;;;;48.47;19.17;;;6.60;89.30;;;;;;5042276;28;20188;-78
2023/04/21 06:15:07;;;;;;;53.03;19.30;;;6.70;89.60;;;;;;5062938;28;20429;-77
2023/04/21 06:17:33;;;;;;;42.70;21.27;;;6.90;89.70;;;;;;5058353;28;20271;-77
2023/04/21 06:19:58;;;;;;;48.67;23.43;;;6.80;89.50;;;;;;5064698;28;20427;-79
2023/04/21 06:22:24;;;;;;;46.03;21.27;;;6.90;89.50;;;;;;5059291;28;20273;-79
2023/04/21 06:24:50;;;;;;;48.60;20.80;;;6.90;89.60;;;;;;5051614;28;20230;-78
2023/04/21 06:27:16;;;;;;;41.10;19.63;;;7.00;89.70;;;;;;5050614;28;20852;-78
2023/04/21 06:29:42;;;;;;;47.30;21.73;;;7.20;89.90;;;;;;5051678;28;20422;-77
2023/04/21 06:32:08;;;;;;;49.93;22.03;;;7.30;89.60;;;;;;5051942;28;20419;-77
2023/04/21 06:34:34;;;;;;;42.93;20.70;;;7.50;88.90;;;;;;5033856;28;20426;-77
2023/04/21 06:37:00;;;;;;;45.80;19.93;;;7.60;88.00;;;;;;5051338;28;21074;-77
2023/04/21 06:39:26;;;;;;;42.20;19.23;;;7.70;87.60;;;;;;5056927;28;20184;-78
2023/04/21 06:41:52;;;;;;;44.10;20.27;;;7.70;87.40;;;;;;5058580;28;20423;-77
2023/04/21 06:44:17;;;;;;;37.30;19.17;;;7.80;87.10;;;;;;5040140;28;20604;-78
2023/04/21 06:46:43;;;;;;;39.80;18.83;;;7.90;86.80;;;;;;5056441;28;20192;-77
2023/04/21 06:49:09;;;;;;;44.13;21.30;;;7.90;86.30;;;;;;5051711;28;20196;-79
2023/04/21 06:51:36;;;;;;;43.80;20.83;;;8.00;86.20;;;;;;5051655;28;20177;-77
2023/04/21 06:54:02;;;;;;;39.33;19.10;;;8.00;85.90;;;;;;5051633;28;20418;-77
2023/04/21 06:56:28;;;;;;;42.63;19.37;;;8.10;86.00;;;;;;5049980;28;20950;-77
2023/04/21 06:58:54;;;;;;;42.10;20.33;;;8.10;86.00;;;;;;5051711;28;20941;-76
2023/04/21 07:01:20;;;;;;;50.30;22.17;;;8.10;86.00;;;;;;5052816;28;20469;-76
2023/04/21 07:03:46;;;;;;;44.60;21.40;;;8.00;85.20;;;;;;5051581;28;20554;-77
2023/04/21 07:06:11;;;;;;;51.43;24.07;;;7.90;85.50;;;;;;5050807;28;20177;-76
2023/04/21 07:08:37;;;;;;;44.23;21.20;;;7.80;86.00;;;;;;5051026;28;20200;-77
2023/04/21 07:11:03;;;;;;;45.60;20.50;;;7.70;86.60;;;;;;5051256;28;20180;-76
2023/04/21 07:13:29;;;;;;;39.47;19.07;;;7.60;87.10;;;;;;5033320;28;20926;-77
2023/04/21 07:15:55;;;;;;;50.00;22.47;;;7.70;87.70;;;;;;5051509;28;20433;-77
2023/04/21 07:18:21;;;;;;;42.93;20.60;;;7.80;88.10;;;;;;5049989;28;20200;-77
2023/04/21 07:20:46;;;;;;;41.17;20.50;;;7.90;88.10;;;;;;5051407;28;20480;-76
2023/04/21 07:23:12;;;;;;;48.20;21.00;;;7.90;88.10;;;;;;5051779;28;20185;-76
2023/04/21 07:25:37;;;;;;;46.20;21.33;;;8.00;87.80;;;;;;5047286;28;20193;-77
2023/04/21 07:28:03;;;;;;;44.80;21.60;;;8.00;87.60;;;;;;5050786;28;20216;-77
2023/04/21 07:30:29;;;;;;;39.67;19.13;;;7.90;87.60;;;;;;5050933;28;20196;-76
2023/04/21 07:32:56;;;;;;;37.93;18.73;;;8.10;87.70;;;;;;5033607;28;20200;-77
2023/04/21 07:35:22;;;;;;;45.00;20.63;;;8.20;87.10;;;;;;5050491;28;20410;-76
2023/04/21 07:37:48;;;;;;;40.93;21.10;;;8.20;86.90;;;;;;5050365;28;20930;-78
2023/04/21 07:40:14;;;;;;;43.43;20.50;;;8.20;86.50;;;;;;5051755;28;20447;-76
2023/04/21 07:42:39;;;;;;;42.80;19.93;;;8.20;86.30;;;;;;5050954;28;20204;-77
2023/04/21 07:45:05;;;;;;;39.30;18.93;;;8.20;86.60;;;;;;5052499;28;20185;-77
2023/04/21 07:47:31;;;;;;;36.53;19.40;;;8.30;86.30;;;;;;5036704;28;20258;-78
2023/04/21 07:49:56;;;;;;;39.57;20.17;;;8.50;86.00;;;;;;5055358;28;20974;-77
2023/04/21 07:52:22;;;;;;;39.93;19.27;;;8.70;85.60;;;;;;5055615;28;20204;-78
2023/04/21 07:54:48;;;;;;;35.70;17.20;;;8.80;85.20;;;;;;5056342;28;20798;-77
2023/04/21 07:57:14;;;;;;;34.23;17.90;;;8.90;84.40;;;;;;5054996;28;20279;-76
2023/04/21 07:59:39;;;;;;;37.00;17.30;;;9.10;83.70;;;;;;5036445;28;20188;-76
2023/04/21 08:02:06;;;;;;;32.93;17.47;;;9.30;83.30;;;;;;5055054;28;20275;-78
2023/04/21 08:04:32;;;;;;;38.43;18.53;;;9.50;82.40;;;;;;5054830;28;20192;-75
2023/04/21 08:06:57;;;;;;;28.37;15.90;;;9.50;81.10;;;;;;5054704;28;20523;-78
2023/04/21 08:09:23;;;;;;;34.33;17.30;;;9.40;80.90;;;;;;5072711;28;20288;-77
2023/04/21 08:11:48;;;;;;;32.83;17.50;;;9.40;80.90;;;;;;5055471;28;20188;-78
2023/04/21 08:14:14;;;;;;;33.10;16.90;;;9.40;81.20;;;;;;5033926;28;20658;-77
2023/04/21 08:16:41;;;;;;;36.77;17.97;;;9.50;81.20;;;;;;5051034;28;20224;-76
2023/04/21 08:19:07;;;;;;;34.90;16.67;;;9.70;81.10;;;;;;5037955;28;20181;-77
2023/04/21 08:21:33;;;;;;;36.07;16.87;;;9.80;80.60;;;;;;5036390;28;20431;-77
2023/04/21 08:24:00;;;;;;;30.67;15.40;;;9.90;80.20;;;;;;5053297;28;20432;-77
2023/04/21 08:26:26;;;;;;;37.23;16.80;;;9.90;80.20;;;;;;5050325;28;20493;-77
2023/04/21 08:28:51;;;;;;;31.30;16.50;;;10.00;80.00;;;;;;5053023;28;20502;-77
2023/04/21 08:31:18;;;;;;;29.63;14.63;;;10.00;79.30;;;;;;5053124;28;20454;-75
2023/04/21 08:33:44;;;;;;;29.10;15.43;;;10.00;79.60;;;;;;5052184;28;20185;-77
2023/04/21 08:36:10;;;;;;;30.87;15.10;;;10.10;79.60;;;;;;5034126;28;20516;-76
2023/04/21 08:38:36;;;;;;;25.10;13.67;;;10.20;79.00;;;;;;5033136;28;20458;-75
2023/04/21 08:41:03;;;;;;;28.70;14.67;;;10.10;78.40;;;;;;5050506;28;20434;-76
2023/04/21 08:43:29;;;;;;;26.20;13.93;;;10.10;78.40;;;;;;5052611;28;20447;-77
2023/04/21 08:45:55;;;;;;;28.07;14.90;;;10.10;79.00;;;;;;5054800;28;20452;-77
2023/04/21 08:48:22;;;;;;;35.27;15.33;;;10.20;79.20;;;;;;5059118;28;20223;-76
2023/04/21 08:50:52;;;;;;;30.03;15.50;;;10.20;78.90;;;;;;5054522;28;20517;-77
2023/04/21 08:53:18;;;;;;;26.40;14.33;;;10.30;78.70;;;;;;5060930;28;20423;-76
2023/04/21 08:55:45;;;;;;;28.20;14.33;;;10.20;79.00;;;;;;5034879;28;20416;-77
2023/04/21 08:58:12;;;;;;;30.27;15.63;;;10.20;79.00;;;;;;5047139;28;20536;-77
2023/04/21 09:00:40;;;;;;;26.67;13.97;;;10.30;79.20;;;;;;5050484;28;20449;-77
2023/04/21 09:03:07;;;;;;;27.83;14.80;;;10.40;78.90;;;;;;5066039;28;20490;-76
2023/04/21 09:05:33;;;;;;;28.23;15.17;;;10.50;78.90;;;;;;5054338;28;20431;-76
2023/04/21 09:08:10;;;;;;;27.70;14.57;;;10.70;78.60;;;;;;5062917;28;20476;-75
2023/04/21 09:10:48;;;;;;;24.67;12.70;;;10.80;77.80;;;;;;5059492;28;20438;-77
2023/04/21 09:13:14;;;;;;;21.10;11.83;;;11.00;78.60;;;;;;5053055;28;20419;-79
2023/04/21 09:15:44;;;;;;;28.83;13.13;;;11.20;77.80;;;;;;5033910;28;20430;-76
2023/04/21 09:18:15;;;;;;;20.93;12.03;;;11.30;76.80;;;;;;5044606;28;20586;-77
2023/04/21 09:20:42;;;;;;;22.23;13.17;;;11.50;76.50;;;;;;5052922;28;20441;-76
2023/04/21 09:23:09;;;;;;;20.17;10.63;;;11.60;76.20;;;;;;5034181;28;20509;-77
2023/04/21 09:25:38;;;;;;;20.77;10.70;;;11.70;75.40;;;;;;5033832;28;20479;-75
2023/04/21 09:28:10;;;;;;;18.93;10.80;;;11.80;75.10;;;;;;5049584;28;20815;-80
2023/04/21 09:30:37;;;;;;;16.10;8.53;;;11.80;75.10;;;;;;5049766;28;20477;-76
2023/04/21 09:33:03;;;;;;;13.47;7.60;;;12.00;75.10;;;;;;5052030;28;20443;-77
2023/04/21 09:35:33;;;;;;;18.70;8.70;;;12.10;74.60;;;;;;5033959;28;20426;-77
2023/04/21 09:38:01;;;;;;;18.37;8.50;;;12.20;73.90;;;;;;5050014;28;20524;-77
2023/04/21 09:40:31;;;;;;;14.90;7.63;;;12.20;73.90;;;;;;5035252;28;20462;-76
2023/04/21 09:42:56;;;;;;;17.00;8.87;;;12.20;73.90;;;;;;5051598;28;20945;-76
2023/04/21 09:45:26;;;;;;;14.70;8.67;;;12.30;73.70;;;;;;5040670;28;20454;-75
2023/04/21 09:47:55;;;;;;;13.27;7.80;;;12.50;73.30;;;;;;5060295;28;20266;-77
2023/04/21 09:50:22;;;;;;;16.37;8.40;;;12.50;73.00;;;;;;5063726;28;20411;-76
2023/04/21 09:52:50;;;;;;;13.70;7.70;;;12.50;73.00;;;;;;5067132;28;20429;-76
2023/04/21 09:55:18;;;;;;;13.97;8.07;;;12.50;72.70;;;;;;5046721;28;20477;-76
2023/04/21 09:57:47;;;;;;;16.13;8.30;;;12.60;73.00;;;;;;5065557;28;20451;-75
2023/04/21 10:00:13;;;;;;;10.13;6.57;;;12.70;72.40;;;;;;5065709;28;20433;-76
2023/04/21 10:02:49;;;;;;;12.00;6.90;;;12.90;72.00;;;;;;5054508;28;20432;-77
2023/04/21 10:05:15;;;;;;;14.37;7.40;;;13.00;71.30;;;;;;5043276;28;20417;-74
2023/04/21 10:07:42;;;;;;;13.30;7.70;;;13.00;71.40;;;;;;5050827;28;20569;-78
2023/04/21 10:10:30;;;;;;;10.47;7.10;;;13.10;71.30;;;;;;5053229;28;20192;-77
2023/04/21 10:12:57;;;;;;;12.40;7.33;;;13.10;71.00;;;;;;5052619;28;20411;-78
2023/04/21 10:15:36;;;;;;;13.83;7.97;;;13.10;71.10;;;;;;5035933;28;20430;-77
2023/04/21 10:18:20;;;;;;;13.77;7.20;;;13.20;71.40;;;;;;5052664;28;20503;-76
2023/04/21 10:21:07;;;;;;;18.67;8.33;;;13.30;71.70;;;;;;5053064;28;20419;-77
2023/04/21 10:23:46;;;;;;;12.70;7.60;;;13.60;71.30;;;;;;5054047;28;20423;-78
2023/04/21 10:26:32;;;;;;;12.97;8.13;;;13.60;70.50;;;;;;5049593;28;20433;-75
2023/04/21 10:29:06;;;;;;;15.40;8.60;;;13.70;70.20;;;;;;5047268;28;20554;-78
2023/04/21 10:31:33;;;;;;;16.23;8.50;;;13.70;69.90;;;;;;5047266;28;20447;-78
2023/04/21 10:34:05;;;;;;;19.37;10.17;;;13.80;70.20;;;;;;5053202;28;20420;-77
2023/04/21 10:36:31;;;;;;;17.60;9.83;;;13.90;69.90;;;;;;5049055;28;20470;-77
2023/04/21 10:39:02;;;;;;;19.57;9.77;;;14.10;69.70;;;;;;5046969;28;20426;-77
2023/04/21 10:41:30;;;;;;;16.60;9.63;;;14.20;69.10;;;;;;5044431;28;20463;-75
2023/04/21 10:44:12;;;;;;;16.93;10.23;;;14.40;69.10;;;;;;5039723;28;20490;-77
2023/04/21 10:46:40;;;;;;;18.60;9.90;;;14.60;69.10;;;;;;5028923;28;20546;-79
2023/04/21 10:49:11;;;;;;;17.07;9.67;;;14.60;68.50;;;;;;5050617;28;20807;-76
2023/04/21 10:54:25;;;;;;;19.30;10.20;;;14.70;68.90;;;;;;5049531;28;20429;-77
2023/04/21 10:56:56;;;;;;;20.83;10.13;;;14.90;68.50;;;;;;5026756;28;20562;-77
2023/04/21 10:59:22;;;;;;;14.03;9.03;;;14.80;68.00;;;;;;5047900;28;20425;-78
2023/04/21 11:01:48;;;;;;;17.80;10.00;;;14.70;68.30;;;;;;5034642;28;20451;-76
2023/04/21 11:04:20;;;;;;;18.63;10.63;;;15.00;68.20;;;;;;5051918;28;20514;-77
2023/04/21 11:07:11;;;;;;;15.97;9.37;;;15.20;68.20;;;;;;5051214;28;20224;-77
2023/04/21 11:09:39;;;;;;;17.00;10.03;;;15.30;67.90;;;;;;5051748;28;20475;-78
2023/04/21 11:12:07;;;;;;;15.03;8.73;;;15.70;67.50;;;;;;5034817;28;20438;-77
2023/04/21 11:14:34;;;;;;;17.17;8.77;;;16.00;67.50;;;;;;5051383;28;20842;-77
2023/04/21 11:17:00;;;;;;;16.30;8.70;;;16.10;67.60;;;;;;5050354;28;20503;-78
2023/04/21 11:19:26;;;;;;;14.33;8.47;;;16.20;66.90;;;;;;5033751;28;20517;-76
2023/04/21 11:21:53;;;;;;;14.70;9.13;;;16.30;67.20;;;;;;5055111;28;20435;-77
2023/04/21 11:24:20;;;;;;;14.60;9.57;;;16.40;67.30;;;;;;5056912;28;20437;-78
2023/04/21 11:26:46;;;;;;;16.93;8.97;;;16.20;67.60;;;;;;5052129;28;20460;-77
2023/04/21 11:29:13;;;;;;;18.60;9.57;;;16.20;67.50;;;;;;5052010;28;20983;-77
2023/04/21 11:31:46;;;;;;;13.90;8.70;;;16.00;67.70;;;;;;5037018;28;20426;-76
2023/04/21 11:34:14;;;;;;;15.50;9.40;;;16.10;68.00;;;;;;5046946;28;20415;-78
2023/04/21 11:36:44;;;;;;;15.30;9.10;;;15.90;68.30;;;;;;5048517;28;20469;-78
2023/04/21 11:39:12;;;;;;;14.20;8.70;;;16.10;68.60;;;;;;5050477;28;20850;-77
2023/04/21 11:41:43;;;;;;;19.20;9.03;;;16.40;67.70;;;;;;5054113;28;20856;-77
2023/04/21 11:44:10;;;;;;;15.53;8.57;;;16.80;66.70;;;;;;5049611;28;20442;-78
2023/04/21 11:46:36;;;;;;;12.80;7.90;;;16.80;66.70;;;;;;5052451;28;20467;-77
2023/04/21 11:49:06;;;;;;;15.27;8.50;;;16.80;66.90;;;;;;5055809;28;20466;-78
2023/04/21 11:51:36;;;;;;;12.53;8.23;;;16.90;66.70;;;;;;5055838;28;20430;-76
2023/04/21 11:54:03;;;;;;;14.50;8.90;;;16.80;66.90;;;;;;5052264;28;20419;-77
2023/04/21 11:56:29;;;;;;;14.87;8.47;;;16.80;66.60;;;;;;5056003;28;20438;-76
2023/04/21 11:58:55;;;;;;;15.83;9.03;;;16.80;67.20;;;;;;5053293;28;20826;-77
2023/04/21 12:01:22;;;;;;;13.63;8.20;;;16.90;67.00;;;;;;5036898;28;20708;-77
2023/04/21 12:03:55;;;;;;;17.37;8.97;;;17.00;67.00;;;;;;5047271;28;20496;-78
2023/04/21 12:06:27;;;;;;;14.40;9.10;;;17.20;66.60;;;;;;5019097;28;20787;-76
2023/04/21 12:09:00;;;;;;;17.87;8.43;;;17.40;65.80;;;;;;5032800;28;20471;-78
2023/04/21 12:11:27;;;;;;;15.43;8.03;;;17.70;65.60;;;;;;5051861;28;20412;-77
2023/04/21 12:13:56;;;;;;;12.00;7.70;;;17.70;64.80;;;;;;5053577;28;20485;-77
2023/04/21 12:16:26;;;;;;;17.60;8.90;;;17.90;64.70;;;;;;5051605;28;20418;-77
2023/04/21 12:18:51;;;;;;;15.73;8.57;;;18.20;64.20;;;;;;5051446;28;20456;-76
2023/04/21 12:21:17;;;;;;;10.67;7.10;;;18.10;63.90;;;;;;5053213;28;21072;-76
2023/04/21 12:23:43;;;;;;;13.17;7.67;;;18.00;64.50;;;;;;5052753;28;20484;-76
2023/04/21 12:26:10;;;;;;;15.80;7.87;;;18.00;64.10;;;;;;5053874;28;20181;-77
2023/04/21 12:28:37;;;;;;;11.60;7.70;;;17.90;64.50;;;;;;5049755;28;21010;-77
2023/04/21 12:31:03;;;;;;;11.70;7.30;;;18.10;64.40;;;;;;5035769;28;20421;-76
2023/04/21 12:33:28;;;;;;;13.10;7.97;;;18.10;64.70;;;;;;5053558;28;20489;-78
2023/04/21 12:35:54;;;;;;;14.10;7.90;;;17.90;64.80;;;;;;5054890;28;20173;-77
2023/04/21 12:38:20;;;;;;;13.87;7.60;;;17.90;65.00;;;;;;5052781;28;20228;-77